sensor_id;sensor_type;location;lat;lon;timestamp;pressure;altitude;pressure_sealevel;temperature;humidity
58092;BME280;43896;48.178;11.578;2024-02-04T00:02:01;96805.72;;;8.63;65.03
58092;BME280;43896;48.178;11.578;2024-02-04T00:04:28;96838.13;;;8.40;66.92
58092;BME280;43896;48.178;11.578;2024-02-04T00:06:53;96825.94;;;8.39;67.15
58092;BME280;43896;48.178;11.578;2024-02-04T00:09:18;96801.34;;;8.53;65.58
58092;BME280;43896;48.178;11.578;2024-02-04T00:11:44;96792.13;;;8.58;65.64
58092;BME280;43896;48.178;11.578;2024-02-04T00:14:10;96811.78;;;8.30;66.41
58092;BME280;43896;48.178;11.578;2024-02-04T00:16:35;96817.84;;;8.42;66.46
58092;BME280;43896;48.178;11.578;2024-02-04T00:19:00;96802.63;;;8.13;67.18
58092;BME280;43896;48.178;11.578;2024-02-04T00:21:26;96838.84;;;8.08;66.90
58092;BME280;43896;48.178;11.578;2024-02-04T00:23:51;96819.56;;;8.43;66.44
58092;BME280;43896;48.178;11.578;2024-02-04T00:26:16;96798.78;;;8.40;66.03
58092;BME280;43896;48.178;11.578;2024-02-04T00:28:42;96818.34;;;8.47;65.47
58092;BME280;43896;48.178;11.578;2024-02-04T00:31:08;96786.44;;;8.31;65.32
58092;BME280;43896;48.178;11.578;2024-02-04T00:33:33;96785.22;;;8.35;65.92
58092;BME280;43896;48.178;11.578;2024-02-04T00:35:59;96791.63;;;8.42;65.91
58092;BME280;43896;48.178;11.578;2024-02-04T00:38:25;96760.22;;;8.19;65.78
58092;BME280;43896;48.178;11.578;2024-02-04T00:40:51;96788.19;;;8.41;65.58
58092;BME280;43896;48.178;11.578;2024-02-04T00:43:18;96794.06;;;8.45;65.90
58092;BME280;43896;48.178;11.578;2024-02-04T00:45:43;96789.03;;;8.31;65.91
58092;BME280;43896;48.178;11.578;2024-02-04T00:48:08;96759.97;;;8.11;66.29
58092;BME280;43896;48.178;11.578;2024-02-04T00:50:33;96753.78;;;8.01;67.31
58092;BME280;43896;48.178;11.578;2024-02-04T00:52:59;96750.34;;;7.78;68.14
58092;BME280;43896;48.178;11.578;2024-02-04T00:55:24;96766.53;;;7.94;67.41
58092;BME280;43896;48.178;11.578;2024-02-04T00:57:50;96787.50;;;8.05;67.33
58092;BME280;43896;48.178;11.578;2024-02-04T01:00:15;96769.53;;;8.12;67.33
58092;BME280;43896;48.178;11.578;2024-02-04T01:02:41;96736.88;;;7.60;68.47
58092;BME280;43896;48.178;11.578;2024-02-04T01:05:07;96759.28;;;7.86;68.52
58092;BME280;43896;48.178;11.578;2024-02-04T01:07:32;96714.75;;;7.75;67.35
58092;BME280;43896;48.178;11.578;2024-02-04T01:09:58;96772.25;;;7.65;68.42
58092;BME280;43896;48.178;11.578;2024-02-04T01:12:23;96746.66;;;7.92;67.85
58092;BME280;43896;48.178;11.578;2024-02-04T01:14:49;96711.16;;;7.99;66.62
58092;BME280;43896;48.178;11.578;2024-02-04T01:17:14;96732.72;;;8.14;66.76
58092;BME280;43896;48.178;11.578;2024-02-04T01:19:39;96758.44;;;8.31;66.55
58092;BME280;43896;48.178;11.578;2024-02-04T01:22:05;96728.22;;;7.93;67.25
58092;BME280;43896;48.178;11.578;2024-02-04T01:24:31;96739.03;;;8.00;66.86
58092;BME280;43896;48.178;11.578;2024-02-04T01:26:56;96721.19;;;7.82;67.09
58092;BME280;43896;48.178;11.578;2024-02-04T01:29:22;96753.44;;;8.17;66.38
58092;BME280;43896;48.178;11.578;2024-02-04T01:31:47;96708.09;;;7.82;66.53
58092;BME280;43896;48.178;11.578;2024-02-04T01:34:12;96753.91;;;8.11;66.64
58092;BME280;43896;48.178;11.578;2024-02-04T01:36:38;96748.78;;;8.20;66.21
58092;BME280;43896;48.178;11.578;2024-02-04T01:39:03;96728.09;;;7.95;66.09
58092;BME280;43896;48.178;11.578;2024-02-04T01:41:30;96766.28;;;8.20;66.48
58092;BME280;43896;48.178;11.578;2024-02-04T01:43:55;96727.34;;;8.04;66.10
58092;BME280;43896;48.178;11.578;2024-02-04T01:46:21;96742.13;;;8.05;66.35
58092;BME280;43896;48.178;11.578;2024-02-04T01:48:47;96739.38;;;7.61;66.54
58092;BME280;43896;48.178;11.578;2024-02-04T01:51:14;96791.31;;;7.79;67.12
58092;BME280;43896;48.178;11.578;2024-02-04T01:53:44;96766.41;;;7.84;66.54
58092;BME280;43896;48.178;11.578;2024-02-04T01:56:10;96762.84;;;7.85;66.65
58092;BME280;43896;48.178;11.578;2024-02-04T01:58:36;96766.41;;;7.84;67.36
58092;BME280;43896;48.178;11.578;2024-02-04T02:01:02;96727.97;;;7.74;66.72
58092;BME280;43896;48.178;11.578;2024-02-04T02:03:28;96766.06;;;8.12;66.01
58092;BME280;43896;48.178;11.578;2024-02-04T02:05:54;96739.16;;;7.76;66.18
58092;BME280;43896;48.178;11.578;2024-02-04T02:08:19;96763.31;;;8.02;66.51
58092;BME280;43896;48.178;11.578;2024-02-04T02:10:46;96775.72;;;8.22;65.38
58092;BME280;43896;48.178;11.578;2024-02-04T02:13:20;96750.22;;;7.91;66.99
58092;BME280;43896;48.178;11.578;2024-02-04T02:15:58;96764.50;;;8.09;65.92
58092;BME280;43896;48.178;11.578;2024-02-04T02:18:34;96782.03;;;8.42;64.79
58092;BME280;43896;48.178;11.578;2024-02-04T02:26:46;96772.81;;;8.59;64.05
58092;BME280;43896;48.178;11.578;2024-02-04T02:29:12;96742.44;;;8.57;64.01
58092;BME280;43896;48.178;11.578;2024-02-04T02:31:38;96760.31;;;8.52;63.75
58092;BME280;43896;48.178;11.578;2024-02-04T02:34:05;96757.34;;;8.56;63.37
58092;BME280;43896;48.178;11.578;2024-02-04T02:36:36;96750.31;;;8.57;63.49
58092;BME280;43896;48.178;11.578;2024-02-04T02:39:10;96708.00;;;8.39;63.69
58092;BME280;43896;48.178;11.578;2024-02-04T02:41:41;96694.00;;;8.29;63.27
58092;BME280;43896;48.178;11.578;2024-02-04T02:44:08;96749.19;;;8.71;63.12
58092;BME280;43896;48.178;11.578;2024-02-04T02:46:34;96648.28;;;8.10;62.85
58092;BME280;43896;48.178;11.578;2024-02-04T02:49:01;96726.63;;;8.36;63.31
58092;BME280;43896;48.178;11.578;2024-02-04T02:51:26;96682.59;;;8.07;63.91
58092;BME280;43896;48.178;11.578;2024-02-04T02:53:51;96726.41;;;8.05;64.58
58092;BME280;43896;48.178;11.578;2024-02-04T02:56:17;96746.06;;;7.88;64.52
58092;BME280;43896;48.178;11.578;2024-02-04T02:58:42;96749.28;;;8.03;65.10
58092;BME280;43896;48.178;11.578;2024-02-04T03:01:07;96732.16;;;7.87;65.03
58092;BME280;43896;48.178;11.578;2024-02-04T03:03:33;96757.59;;;8.31;64.20
58092;BME280;43896;48.178;11.578;2024-02-04T03:05:58;96762.47;;;8.35;64.27
58092;BME280;43896;48.178;11.578;2024-02-04T03:08:23;96727.13;;;8.07;64.45
58092;BME280;43896;48.178;11.578;2024-02-04T03:10:49;96768.44;;;8.37;64.56
58092;BME280;43896;48.178;11.578;2024-02-04T03:13:14;96746.41;;;8.17;63.91
58092;BME280;43896;48.178;11.578;2024-02-04T03:15:39;96726.41;;;8.05;64.52
58092;BME280;43896;48.178;11.578;2024-02-04T03:18:06;96757.34;;;8.34;64.05
58092;BME280;43896;48.178;11.578;2024-02-04T03:20:32;96775.59;;;8.47;63.63
58092;BME280;43896;48.178;11.578;2024-02-04T03:22:57;96755.34;;;8.26;64.83
58092;BME280;43896;48.178;11.578;2024-02-04T03:25:22;96752.34;;;8.31;64.47
58092;BME280;43896;48.178;11.578;2024-02-04T03:27:51;96764.75;;;8.51;63.62
58092;BME280;43896;48.178;11.578;2024-02-04T03:30:19;96747.69;;;8.45;63.93
58092;BME280;43896;48.178;11.578;2024-02-04T03:32:44;96778.06;;;8.59;63.22
58092;BME280;43896;48.178;11.578;2024-02-04T03:35:10;96779.25;;;8.67;63.63
58092;BME280;43896;48.178;11.578;2024-02-04T03:37:35;96787.75;;;8.48;64.63
58092;BME280;43896;48.178;11.578;2024-02-04T03:40:01;96777.34;;;8.69;63.34
58092;BME280;43896;48.178;11.578;2024-02-04T03:42:26;96749.03;;;8.06;64.89
58092;BME280;43896;48.178;11.578;2024-02-04T03:44:51;96754.84;;;8.55;64.36
58092;BME280;43896;48.178;11.578;2024-02-04T03:47:17;96704.47;;;8.29;63.45
58092;BME280;43896;48.178;11.578;2024-02-04T03:49:42;96745.44;;;8.30;64.17
58092;BME280;43896;48.178;11.578;2024-02-04T03:52:07;96705.53;;;8.15;63.68
58092;BME280;43896;48.178;11.578;2024-02-04T03:54:33;96750.66;;;8.52;63.76
58092;BME280;43896;48.178;11.578;2024-02-04T03:56:58;96704.47;;;8.29;63.29
58092;BME280;43896;48.178;11.578;2024-02-04T03:59:24;96654.66;;;7.74;63.58
58092;BME280;43896;48.178;11.578;2024-02-04T04:01:50;96689.16;;;7.67;65.31
58092;BME280;43896;48.178;11.578;2024-02-04T04:04:16;96763.41;;;8.57;64.12
58092;BME280;43896;48.178;11.578;2024-02-04T04:06:45;96694.69;;;8.31;63.99
58092;BME280;43896;48.178;11.578;2024-02-04T04:09:10;96744.44;;;8.64;63.84
58092;BME280;43896;48.178;11.578;2024-02-04T04:11:36;96725.06;;;8.44;63.84
58092;BME280;43896;48.178;11.578;2024-02-04T04:14:01;96660.53;;;8.10;64.12
58092;BME280;43896;48.178;11.578;2024-02-04T04:16:27;96732.09;;;8.44;64.44
58092;BME280;43896;48.178;11.578;2024-02-04T04:18:52;96642.13;;;7.88;64.07
58092;BME280;43896;48.178;11.578;2024-02-04T04:21:18;96671.28;;;8.06;64.43
58092;BME280;43896;48.178;11.578;2024-02-04T04:23:43;96696.41;;;8.09;64.37
58092;BME280;43896;48.178;11.578;2024-02-04T04:26:08;96751.38;;;8.54;64.60
58092;BME280;43896;48.178;11.578;2024-02-04T04:28:34;96747.38;;;8.05;65.55
58092;BME280;43896;48.178;11.578;2024-02-04T04:31:00;96729.00;;;8.27;65.98
58092;BME280;43896;48.178;11.578;2024-02-04T04:33:25;96727.09;;;8.41;65.17
58092;BME280;43896;48.178;11.578;2024-02-04T04:35:50;96685.44;;;8.04;65.74
58092;BME280;43896;48.178;11.578;2024-02-04T04:38:16;96741.88;;;8.31;65.93
58092;BME280;43896;48.178;11.578;2024-02-04T04:40:41;96744.69;;;8.39;65.69
58092;BME280;43896;48.178;11.578;2024-02-04T04:43:07;96731.63;;;8.27;65.24
58092;BME280;43896;48.178;11.578;2024-02-04T04:45:32;96735.31;;;8.25;66.22
58092;BME280;43896;48.178;11.578;2024-02-04T04:47:57;96769.34;;;8.70;65.02
58092;BME280;43896;48.178;11.578;2024-02-04T04:50:23;96759.69;;;8.71;65.21
58092;BME280;43896;48.178;11.578;2024-02-04T04:52:49;96776.34;;;8.81;65.12
58092;BME280;43896;48.178;11.578;2024-02-04T04:55:14;96736.38;;;8.56;64.86
58092;BME280;43896;48.178;11.578;2024-02-04T04:57:40;96740.50;;;8.70;64.88
58092;BME280;43896;48.178;11.578;2024-02-04T05:00:06;96767.72;;;8.90;64.34
58092;BME280;43896;48.178;11.578;2024-02-04T05:02:35;96771.56;;;8.86;64.33
58092;BME280;43896;48.178;11.578;2024-02-04T05:05:00;96723.25;;;8.34;65.23
58092;BME280;43896;48.178;11.578;2024-02-04T05:07:26;96725.88;;;8.56;64.71
58092;BME280;43896;48.178;11.578;2024-02-04T05:09:51;96718.84;;;8.57;63.84
58092;BME280;43896;48.178;11.578;2024-02-04T05:12:17;96766.16;;;8.55;64.52
58092;BME280;43896;48.178;11.578;2024-02-04T05:14:42;96732.69;;;8.48;64.32
58092;BME280;43896;48.178;11.578;2024-02-04T05:17:08;96738.44;;;8.19;65.35
58092;BME280;43896;48.178;11.578;2024-02-04T05:19:35;96698.59;;;8.36;63.41
58092;BME280;43896;48.178;11.578;2024-02-04T05:22:00;96711.69;;;8.59;63.20
58092;BME280;43896;48.178;11.578;2024-02-04T05:24:25;96702.75;;;8.61;63.32
58092;BME280;43896;48.178;11.578;2024-02-04T05:26:51;96740.91;;;8.87;63.12
58092;BME280;43896;48.178;11.578;2024-02-04T05:29:16;96729.84;;;8.83;63.26
58092;BME280;43896;48.178;11.578;2024-02-04T05:31:42;96734.25;;;8.82;63.24
58092;BME280;43896;48.178;11.578;2024-02-04T05:34:08;96743.72;;;8.74;63.29
58092;BME280;43896;48.178;11.578;2024-02-04T05:36:33;96757.16;;;8.80;63.71
58092;BME280;43896;48.178;11.578;2024-02-04T05:39:09;96741.81;;;8.64;63.89
58092;BME280;43896;48.178;11.578;2024-02-04T05:41:36;96738.38;;;8.41;65.92
58092;BME280;43896;48.178;11.578;2024-02-04T05:44:02;96725.38;;;8.62;65.77
58092;BME280;43896;48.178;11.578;2024-02-04T05:46:28;96732.75;;;8.69;66.01
58092;BME280;43896;48.178;11.578;2024-02-04T05:48:53;96709.44;;;8.32;66.62
58092;BME280;43896;48.178;11.578;2024-02-04T05:51:18;96747.66;;;8.68;67.43
58092;BME280;43896;48.178;11.578;2024-02-04T05:53:44;96737.44;;;8.54;67.38
58092;BME280;43896;48.178;11.578;2024-02-04T05:56:09;96664.13;;;8.08;67.43
58092;BME280;43896;48.178;11.578;2024-02-04T05:58:35;96681.16;;;8.14;67.32
58092;BME280;43896;48.178;11.578;2024-02-04T06:01:00;96738.63;;;8.38;67.94
58092;BME280;43896;48.178;11.578;2024-02-04T06:03:25;96735.69;;;8.20;68.41
58092;BME280;43896;48.178;11.578;2024-02-04T06:05:51;96707.59;;;8.11;68.21
58092;BME280;43896;48.178;11.578;2024-02-04T06:08:16;96753.19;;;8.31;68.56
58092;BME280;43896;48.178;11.578;2024-02-04T06:10:42;96762.31;;;8.59;68.21
58092;BME280;43896;48.178;11.578;2024-02-04T06:13:07;96755.91;;;8.52;67.98
58092;BME280;43896;48.178;11.578;2024-02-04T06:15:33;96703.28;;;8.21;68.12
58092;BME280;43896;48.178;11.578;2024-02-04T06:18:00;96764.81;;;8.61;67.93
58092;BME280;43896;48.178;11.578;2024-02-04T06:20:26;96746.13;;;8.54;67.73
58092;BME280;43896;48.178;11.578;2024-02-04T06:22:51;96754.47;;;8.59;67.37
58092;BME280;43896;48.178;11.578;2024-02-04T06:25:17;96725.63;;;8.59;67.61
58092;BME280;43896;48.178;11.578;2024-02-04T06:27:42;96712.31;;;8.51;67.31
58092;BME280;43896;48.178;11.578;2024-02-04T06:30:08;96687.09;;;8.16;68.28
58092;BME280;43896;48.178;11.578;2024-02-04T06:32:33;96766.59;;;8.72;67.13
58092;BME280;43896;48.178;11.578;2024-02-04T06:34:59;96704.44;;;8.40;66.99
58092;BME280;43896;48.178;11.578;2024-02-04T06:37:24;96748.50;;;8.69;66.80
58092;BME280;43896;48.178;11.578;2024-02-04T06:39:52;96676.13;;;8.22;67.06
58092;BME280;43896;48.178;11.578;2024-02-04T06:42:17;96678.72;;;8.34;66.79
58092;BME280;43896;48.178;11.578;2024-02-04T06:44:44;96785.84;;;8.93;66.92
58092;BME280;43896;48.178;11.578;2024-02-04T06:47:10;96787.84;;;8.57;67.40
58092;BME280;43896;48.178;11.578;2024-02-04T06:49:37;96734.28;;;8.05;69.06
58092;BME280;43896;48.178;11.578;2024-02-04T06:52:03;96746.41;;;8.29;68.62
58092;BME280;43896;48.178;11.578;2024-02-04T06:54:29;96741.84;;;8.53;67.09
58092;BME280;43896;48.178;11.578;2024-02-04T06:56:54;96767.09;;;8.54;66.93
58092;BME280;43896;48.178;11.578;2024-02-04T06:59:20;96798.19;;;8.70;67.08
58092;BME280;43896;48.178;11.578;2024-02-04T07:01:45;96804.72;;;8.87;66.69
58092;BME280;43896;48.178;11.578;2024-02-04T07:04:11;96752.13;;;8.11;67.91
58092;BME280;43896;48.178;11.578;2024-02-04T07:06:36;96703.75;;;8.26;66.36
58092;BME280;43896;48.178;11.578;2024-02-04T07:09:01;96744.81;;;8.60;66.21
58092;BME280;43896;48.178;11.578;2024-02-04T07:11:27;96709.56;;;8.30;65.61
58092;BME280;43896;48.178;11.578;2024-02-04T07:13:52;96791.59;;;8.87;65.79
58092;BME280;43896;48.178;11.578;2024-02-04T07:16:24;96689.69;;;8.27;65.59
58092;BME280;43896;48.178;11.578;2024-02-04T07:18:50;96713.97;;;8.41;65.29
58092;BME280;43896;48.178;11.578;2024-02-04T07:21:15;96707.28;;;8.37;64.93
58092;BME280;43896;48.178;11.578;2024-02-04T07:23:41;96672.00;;;8.08;65.65
58092;BME280;43896;48.178;11.578;2024-02-04T07:26:07;96707.81;;;8.31;65.31
58092;BME280;43896;48.178;11.578;2024-02-04T07:28:32;96787.06;;;8.89;65.67
58092;BME280;43896;48.178;11.578;2024-02-04T07:30:58;96672.34;;;8.15;65.59
58092;BME280;43896;48.178;11.578;2024-02-04T07:33:23;96679.81;;;8.20;64.85
58092;BME280;43896;48.178;11.578;2024-02-04T07:35:48;96725.19;;;8.43;65.16
58092;BME280;43896;48.178;11.578;2024-02-04T07:38:14;96716.34;;;8.44;65.49
58092;BME280;43896;48.178;11.578;2024-02-04T07:40:39;96776.56;;;8.89;64.92
58092;BME280;43896;48.178;11.578;2024-02-04T07:43:05;96787.06;;;8.89;65.23
58092;BME280;43896;48.178;11.578;2024-02-04T07:45:31;96792.19;;;8.91;64.70
58092;BME280;43896;48.178;11.578;2024-02-04T07:47:56;96737.88;;;8.70;64.26
58092;BME280;43896;48.178;11.578;2024-02-04T07:50:22;96673.63;;;8.32;64.56
58092;BME280;43896;48.178;11.578;2024-02-04T07:52:47;96759.84;;;8.90;64.37
58092;BME280;43896;48.178;11.578;2024-02-04T07:55:13;96684.66;;;8.47;64.08
58092;BME280;43896;48.178;11.578;2024-02-04T07:57:38;96704.38;;;8.74;63.65
58092;BME280;43896;48.178;11.578;2024-02-04T08:00:04;96683.88;;;8.68;63.27
58092;BME280;43896;48.178;11.578;2024-02-04T08:02:31;96665.69;;;8.55;63.25
58092;BME280;43896;48.178;11.578;2024-02-04T08:04:57;96643.84;;;8.66;62.25
58092;BME280;43896;48.178;11.578;2024-02-04T08:07:22;96685.25;;;8.83;62.36
58092;BME280;43896;48.178;11.578;2024-02-04T08:09:48;96717.25;;;8.98;62.18
58092;BME280;43896;48.178;11.578;2024-02-04T08:12:16;96765.34;;;9.19;62.67
58092;BME280;43896;48.178;11.578;2024-02-04T08:14:41;96787.63;;;9.25;62.64
58092;BME280;43896;48.178;11.578;2024-02-04T08:17:06;96737.91;;;8.91;62.55
58092;BME280;43896;48.178;11.578;2024-02-04T08:19:32;96763.81;;;9.17;62.63
58092;BME280;43896;48.178;11.578;2024-02-04T08:21:57;96759.78;;;9.13;62.22
58092;BME280;43896;48.178;11.578;2024-02-04T08:24:24;96730.81;;;8.82;63.27
58092;BME280;43896;48.178;11.578;2024-02-04T08:26:49;96702.66;;;8.84;62.75
58092;BME280;43896;48.178;11.578;2024-02-04T08:29:15;96754.25;;;9.16;62.19
58092;BME280;43896;48.178;11.578;2024-02-04T08:31:40;96709.81;;;8.82;62.50
58092;BME280;43896;48.178;11.578;2024-02-04T08:34:06;96668.38;;;8.64;62.39
58092;BME280;43896;48.178;11.578;2024-02-04T08:36:32;96693.91;;;8.95;62.04
58092;BME280;43896;48.178;11.578;2024-02-04T08:38:58;96726.53;;;9.23;61.68
58092;BME280;43896;48.178;11.578;2024-02-04T08:41:23;96720.13;;;9.16;61.83
58092;BME280;43896;48.178;11.578;2024-02-04T08:43:49;96744.84;;;9.55;61.67
58092;BME280;43896;48.178;11.578;2024-02-04T08:46:14;96657.28;;;9.14;61.11
58092;BME280;43896;48.178;11.578;2024-02-04T08:48:41;96769.88;;;9.81;61.34
58092;BME280;43896;48.178;11.578;2024-02-04T08:51:11;96718.03;;;9.52;61.03
58092;BME280;43896;48.178;11.578;2024-02-04T08:53:37;96764.00;;;9.98;60.21
58092;BME280;43896;48.178;11.578;2024-02-04T08:56:04;96711.25;;;9.80;60.36
58092;BME280;43896;48.178;11.578;2024-02-04T08:58:30;96706.75;;;9.92;59.91
58092;BME280;43896;48.178;11.578;2024-02-04T09:00:55;96674.34;;;9.82;59.49
58092;BME280;43896;48.178;11.578;2024-02-04T09:03:21;96658.81;;;9.69;59.46
58092;BME280;43896;48.178;11.578;2024-02-04T09:05:46;96661.53;;;9.98;58.78
58092;BME280;43896;48.178;11.578;2024-02-04T09:08:12;96623.19;;;9.86;58.54
58092;BME280;43896;48.178;11.578;2024-02-04T09:10:37;96631.41;;;10.12;58.32
58092;BME280;43896;48.178;11.578;2024-02-04T09:13:03;96677.03;;;10.51;57.61
58092;BME280;43896;48.178;11.578;2024-02-04T09:15:28;96634.78;;;10.43;57.44
58092;BME280;43896;48.178;11.578;2024-02-04T09:17:54;96629.13;;;10.48;57.55
58092;BME280;43896;48.178;11.578;2024-02-04T09:20:19;96642.00;;;10.51;57.17
58092;BME280;43896;48.178;11.578;2024-02-04T09:22:45;96706.66;;;10.83;57.15
58092;BME280;43896;48.178;11.578;2024-02-04T09:25:10;96654.47;;;10.49;57.35
58092;BME280;43896;48.178;11.578;2024-02-04T09:27:36;96637.84;;;10.39;57.40
58092;BME280;43896;48.178;11.578;2024-02-04T09:30:02;96624.31;;;9.93;58.30
58092;BME280;43896;48.178;11.578;2024-02-04T09:32:27;96734.22;;;10.69;57.93
58092;BME280;43896;48.178;11.578;2024-02-04T09:34:53;96635.22;;;9.88;58.59
58092;BME280;43896;48.178;11.578;2024-02-04T09:37:18;96663.50;;;10.16;57.86
58092;BME280;43896;48.178;11.578;2024-02-04T09:39:43;96699.94;;;10.30;58.69
58092;BME280;43896;48.178;11.578;2024-02-04T09:42:10;96727.00;;;10.42;59.07
58092;BME280;43896;48.178;11.578;2024-02-04T09:44:42;96720.72;;;10.33;59.00
58092;BME280;43896;48.178;11.578;2024-02-04T09:47:08;96689.75;;;9.96;59.29
58092;BME280;43896;48.178;11.578;2024-02-04T09:49:34;96726.59;;;10.16;58.92
58092;BME280;43896;48.178;11.578;2024-02-04T09:52:06;96716.78;;;10.18;59.44
58092;BME280;43896;48.178;11.578;2024-02-04T09:54:34;96696.38;;;10.00;59.42
58092;BME280;43896;48.178;11.578;2024-02-04T09:57:05;96659.81;;;9.77;59.61
58092;BME280;43896;48.178;11.578;2024-02-04T09:59:30;96631.47;;;9.71;59.79
58092;BME280;43896;48.178;11.578;2024-02-04T10:01:57;96639.63;;;9.78;59.38
58092;BME280;43896;48.178;11.578;2024-02-04T10:04:22;96680.41;;;10.13;59.32
58092;BME280;43896;48.178;11.578;2024-02-04T10:06:48;96731.16;;;10.54;59.11
58092;BME280;43896;48.178;11.578;2024-02-04T10:09:13;96710.91;;;10.35;58.50
58092;BME280;43896;48.178;11.578;2024-02-04T10:11:39;96765.25;;;10.75;58.84
58092;BME280;43896;48.178;11.578;2024-02-04T10:14:04;96721.03;;;10.49;58.35
58092;BME280;43896;48.178;11.578;2024-02-04T10:16:30;96725.84;;;10.35;58.87
58092;BME280;43896;48.178;11.578;2024-02-04T10:18:56;96692.03;;;10.20;59.49
58092;BME280;43896;48.178;11.578;2024-02-04T10:21:23;96674.31;;;10.22;59.00
58092;BME280;43896;48.178;11.578;2024-02-04T10:23:50;96686.28;;;10.36;58.57
58092;BME280;43896;48.178;11.578;2024-02-04T10:26:17;96724.19;;;10.43;59.56
58092;BME280;43896;48.178;11.578;2024-02-04T10:28:45;96730.75;;;10.68;58.37
58092;BME280;43896;48.178;11.578;2024-02-04T10:31:12;96716.78;;;10.78;57.50
58092;BME280;43896;48.178;11.578;2024-02-04T10:33:37;96748.94;;;11.11;57.02
58092;BME280;43896;48.178;11.578;2024-02-04T10:36:03;96730.09;;;10.96;57.02
58092;BME280;43896;48.178;11.578;2024-02-04T10:38:30;96710.41;;;10.70;57.07
58092;BME280;43896;48.178;11.578;2024-02-04T10:40:55;96740.88;;;10.73;57.56
58092;BME280;43896;48.178;11.578;2024-02-04T10:43:21;96718.16;;;10.72;57.45
58092;BME280;43896;48.178;11.578;2024-02-04T10:45:47;96764.41;;;10.65;58.47
58092;BME280;43896;48.178;11.578;2024-02-04T10:48:15;96722.97;;;10.47;58.06
58092;BME280;43896;48.178;11.578;2024-02-04T10:50:46;96686.94;;;10.28;58.08
58092;BME280;43896;48.178;11.578;2024-02-04T10:53:14;96692.09;;;10.40;58.62
58092;BME280;43896;48.178;11.578;2024-02-04T10:55:43;96707.31;;;10.36;58.54
58092;BME280;43896;48.178;11.578;2024-02-04T10:58:12;96753.47;;;10.69;58.32
58092;BME280;43896;48.178;11.578;2024-02-04T11:00:40;96751.53;;;10.72;58.64
58092;BME280;43896;48.178;11.578;2024-02-04T11:03:06;96670.09;;;10.41;58.60
58092;BME280;43896;48.178;11.578;2024-02-04T11:05:34;96674.66;;;10.39;57.98
58092;BME280;43896;48.178;11.578;2024-02-04T11:08:04;96642.22;;;10.19;58.28
58092;BME280;43896;48.178;11.578;2024-02-04T11:10:31;96718.44;;;10.59;58.86
58092;BME280;43896;48.178;11.578;2024-02-04T11:12:58;96674.53;;;10.60;58.56
58092;BME280;43896;48.178;11.578;2024-02-04T11:15:29;96676.75;;;10.84;58.09
58092;BME280;43896;48.178;11.578;2024-02-04T11:18:21;96717.34;;;11.11;58.00
58092;BME280;43896;48.178;11.578;2024-02-04T11:23:58;96611.84;;;10.45;57.95
58092;BME280;43896;48.178;11.578;2024-02-04T11:26:27;96648.88;;;11.20;56.65
58092;BME280;43896;48.178;11.578;2024-02-04T11:28:53;96647.50;;;11.26;56.27
58092;BME280;43896;48.178;11.578;2024-02-04T11:31:19;96680.25;;;11.51;56.72
58092;BME280;43896;48.178;11.578;2024-02-04T11:33:45;96612.00;;;11.20;56.34
58092;BME280;43896;48.178;11.578;2024-02-04T11:36:14;96564.28;;;10.96;56.23
58092;BME280;43896;48.178;11.578;2024-02-04T11:38:40;96673.63;;;11.47;56.96
58092;BME280;43896;48.178;11.578;2024-02-04T11:41:07;96649.41;;;11.34;56.82
58092;BME280;43896;48.178;11.578;2024-02-04T11:43:33;96529.94;;;10.97;56.84
58092;BME280;43896;48.178;11.578;2024-02-04T11:46:03;96666.78;;;12.01;55.33
58092;BME280;43896;48.178;11.578;2024-02-04T11:48:33;96596.06;;;11.59;55.10
58092;BME280;43896;48.178;11.578;2024-02-04T11:50:59;96653.25;;;11.87;55.38
58092;BME280;43896;48.178;11.578;2024-02-04T11:53:29;96663.13;;;11.75;56.13
58092;BME280;43896;48.178;11.578;2024-02-04T11:56:00;96608.47;;;11.49;55.83
58092;BME280;43896;48.178;11.578;2024-02-04T11:58:29;96671.06;;;11.65;56.48
58092;BME280;43896;48.178;11.578;2024-02-04T12:00:56;96653.28;;;11.77;56.43
58092;BME280;43896;48.178;11.578;2024-02-04T12:03:32;96562.38;;;11.25;56.18
58092;BME280;43896;48.178;11.578;2024-02-04T12:05:58;96643.66;;;11.95;55.72
58092;BME280;43896;48.178;11.578;2024-02-04T12:08:25;96581.97;;;11.51;55.82
58092;BME280;43896;48.178;11.578;2024-02-04T12:10:52;96543.91;;;10.98;56.43
58092;BME280;43896;48.178;11.578;2024-02-04T12:13:18;96569.31;;;11.26;55.83
58092;BME280;43896;48.178;11.578;2024-02-04T12:15:44;96570.81;;;11.29;56.44
58092;BME280;43896;48.178;11.578;2024-02-04T12:18:11;96551.00;;;11.35;55.86
58092;BME280;43896;48.178;11.578;2024-02-04T12:20:37;96576.41;;;11.54;55.78
58092;BME280;43896;48.178;11.578;2024-02-04T12:23:07;96627.84;;;11.86;56.14
58092;BME280;43896;48.178;11.578;2024-02-04T12:25:34;96507.25;;;10.86;56.96
58092;BME280;43896;48.178;11.578;2024-02-04T12:28:00;96609.66;;;11.64;56.24
58092;BME280;43896;48.178;11.578;2024-02-04T12:30:29;96560.09;;;11.13;56.63
58092;BME280;43896;48.178;11.578;2024-02-04T12:33:03;96552.41;;;10.92;57.07
58092;BME280;43896;48.178;11.578;2024-02-04T12:35:32;96608.94;;;11.35;57.52
58092;BME280;43896;48.178;11.578;2024-02-04T12:37:58;96552.00;;;10.86;57.89
58092;BME280;43896;48.178;11.578;2024-02-04T12:40:31;96603.63;;;11.44;57.12
58092;BME280;43896;48.178;11.578;2024-02-04T12:42:58;96575.13;;;11.30;56.95
58092;BME280;43896;48.178;11.578;2024-02-04T12:45:26;96475.31;;;10.72;57.21
58092;BME280;43896;48.178;11.578;2024-02-04T12:47:52;96519.13;;;11.00;57.31
58092;BME280;43896;48.178;11.578;2024-02-04T12:50:19;96543.81;;;11.27;57.21
58092;BME280;43896;48.178;11.578;2024-02-04T12:52:45;96520.91;;;10.53;59.08
58092;BME280;43896;48.178;11.578;2024-02-04T12:55:25;96529.66;;;11.00;57.63
58092;BME280;43896;48.178;11.578;2024-02-04T12:58:09;96507.03;;;11.07;56.93
58092;BME280;43896;48.178;11.578;2024-02-04T13:00:37;96521.84;;;11.08;57.72
58092;BME280;43896;48.178;11.578;2024-02-04T13:03:04;96444.00;;;11.06;56.96